createdAt,value
2023-04-18T00:01:59.727Z,81.30
2023-04-18T00:04:28.569Z,81.66
2023-04-18T00:06:56.949Z,82.53
2023-04-18T00:09:25.768Z,82.64
2023-04-18T00:11:54.255Z,82.80
2023-04-18T00:14:23.969Z,82.87
2023-04-18T00:16:54.340Z,82.48
2023-04-18T00:19:22.746Z,83.17
2023-04-18T00:21:53.283Z,83.44
2023-04-18T00:24:21.604Z,83.46
2023-04-18T00:26:50.108Z,83.50
2023-04-18T00:29:18.532Z,83.39
2023-04-18T00:31:48.461Z,83.35
2023-04-18T00:34:17.278Z,83.51
2023-04-18T00:36:46.980Z,83.87
2023-04-18T00:39:16.458Z,83.86
2023-04-18T00:41:44.783Z,83.85
2023-04-18T00:44:13.188Z,83.53
2023-04-18T00:46:41.663Z,83.96
2023-04-18T00:49:11.752Z,83.92
2023-04-18T00:51:41.175Z,83.90
2023-04-18T00:54:11.799Z,83.68
2023-04-18T00:56:40.814Z,83.33
2023-04-18T00:59:10.635Z,82.94
2023-04-18T01:01:40.575Z,83.70
2023-04-18T01:04:11.509Z,83.75
2023-04-18T01:06:44.137Z,83.88
2023-04-18T01:09:14.057Z,83.79
2023-04-18T01:11:42.332Z,83.42
2023-04-18T01:14:11.139Z,83.80
2023-04-18T01:16:40.111Z,83.86
2023-04-18T01:19:08.543Z,84.22
2023-04-18T01:21:43.841Z,83.98
2023-04-18T01:24:17.701Z,84.48
2023-04-18T01:26:48.517Z,84.11
2023-04-18T01:29:17.063Z,84.35
2023-04-18T01:31:46.088Z,84.61
2023-04-18T01:34:18.029Z,84.32
2023-04-18T01:36:47.398Z,84.50
2023-04-18T01:39:18.513Z,84.29
2023-04-18T01:41:47.133Z,84.25
2023-04-18T01:44:15.773Z,83.92
2023-04-18T01:46:47.385Z,84.06
2023-04-18T01:49:16.231Z,84.06
2023-04-18T01:51:44.476Z,84.07
2023-04-18T01:54:13.020Z,83.94
2023-04-18T01:56:42.897Z,84.62
2023-04-18T01:59:11.360Z,84.25
2023-04-18T02:01:40.081Z,84.12
2023-04-18T02:04:08.501Z,84.76
2023-04-18T02:06:36.997Z,84.55
2023-04-18T02:09:06.113Z,84.60
2023-04-18T02:11:34.422Z,84.50
2023-04-18T02:14:06.618Z,84.61
2023-04-18T02:16:35.427Z,84.93
2023-04-18T02:19:04.420Z,84.83
2023-04-18T02:21:32.727Z,85.06
2023-04-18T02:24:01.049Z,84.81
2023-04-18T02:26:29.374Z,85.18
2023-04-18T02:28:59.889Z,85.67
2023-04-18T02:31:33.290Z,85.97
2023-04-18T02:34:01.591Z,85.89
2023-04-18T02:36:29.868Z,86.04
2023-04-18T02:38:58.240Z,85.89
2023-04-18T02:41:26.903Z,86.29
2023-04-18T02:43:56.413Z,85.95
2023-04-18T02:46:26.048Z,86.14
2023-04-18T02:48:55.943Z,87.01
2023-04-18T02:51:26.908Z,86.53
2023-04-18T02:53:57.413Z,86.71
2023-04-18T02:56:29.889Z,86.50
2023-04-18T02:59:19.521Z,86.55
2023-04-18T03:02:09.208Z,86.62
2023-04-18T03:04:42.827Z,86.73
2023-04-18T03:07:11.687Z,87.03
2023-04-18T03:09:40.909Z,87.11
2023-04-18T03:12:18.578Z,86.90
2023-04-18T03:14:47.768Z,86.69
2023-04-18T03:17:16.498Z,87.38
2023-04-18T03:19:50.609Z,87.28
2023-04-18T03:22:21.206Z,87.00
2023-04-18T03:24:57.768Z,87.12
2023-04-18T03:27:41.014Z,87.34
2023-04-18T03:30:10.487Z,86.74
2023-04-18T03:32:42.288Z,87.08
2023-04-18T03:35:12.680Z,86.87
2023-04-18T03:37:41.141Z,87.17
2023-04-18T03:40:12.876Z,86.97
2023-04-18T03:42:42.965Z,86.77
2023-04-18T03:45:12.905Z,87.30
2023-04-18T03:47:41.912Z,86.72
2023-04-18T03:50:12.138Z,86.56
2023-04-18T03:52:42.325Z,86.61
2023-04-18T03:55:11.484Z,86.18
2023-04-18T03:57:41.418Z,86.04
2023-04-18T04:00:15.859Z,86.32
2023-04-18T04:02:44.383Z,86.35
2023-04-18T04:05:21.018Z,86.18
2023-04-18T04:07:50.680Z,86.34
2023-04-18T04:10:19.626Z,86.04
2023-04-18T04:12:49.385Z,85.91
2023-04-18T04:15:18.318Z,86.09
2023-04-18T04:17:52.892Z,86.00
2023-04-18T04:20:24.859Z,86.53
2023-04-18T04:23:00.956Z,86.80
2023-04-18T04:25:30.033Z,87.16
2023-04-18T04:28:02.976Z,86.90
2023-04-18T04:30:35.916Z,86.87
2023-04-18T04:33:04.362Z,86.40
2023-04-18T04:35:34.910Z,85.93
2023-04-18T04:38:03.936Z,85.91
2023-04-18T04:40:39.900Z,86.08
2023-04-18T04:43:15.660Z,85.70
2023-04-18T04:45:46.017Z,85.41
2023-04-18T04:48:14.498Z,85.01
2023-04-18T04:50:53.119Z,84.95
2023-04-18T04:53:21.596Z,84.93
2023-04-18T04:55:50.265Z,84.87
2023-04-18T04:58:19.480Z,84.68
2023-04-18T05:01:12.492Z,84.80
2023-04-18T05:03:41.852Z,84.53
2023-04-18T05:06:11.869Z,84.53
2023-04-18T05:08:40.221Z,84.19
2023-04-18T05:11:08.459Z,83.78
2023-04-18T05:13:36.719Z,84.03
2023-04-18T05:16:05.982Z,84.28
2023-04-18T05:18:35.097Z,84.05
2023-04-18T05:21:03.478Z,84.18
2023-04-18T05:23:34.986Z,83.77
2023-04-18T05:26:03.582Z,84.09
2023-04-18T05:28:31.924Z,83.65
2023-04-18T05:31:02.355Z,83.05
2023-04-18T05:33:31.221Z,82.71
2023-04-18T05:36:00.180Z,82.63
2023-04-18T05:38:28.693Z,82.20
2023-04-18T05:41:00.429Z,82.70
2023-04-18T05:43:28.964Z,82.50
2023-04-18T05:45:57.956Z,81.98
2023-04-18T05:48:26.404Z,82.27
2023-04-18T05:50:54.958Z,81.87
2023-04-18T05:53:23.345Z,82.25
2023-04-18T05:55:51.677Z,82.14
2023-04-18T05:58:21.339Z,81.85
2023-04-18T06:00:49.682Z,81.61
2023-04-18T06:03:18.051Z,81.61
2023-04-18T06:05:46.673Z,81.24
2023-04-18T06:08:14.967Z,80.66
2023-04-18T06:10:43.224Z,80.35
2023-04-18T06:13:12.624Z,77.71
2023-04-18T06:15:42.250Z,75.42
2023-04-18T06:18:10.595Z,73.71
2023-04-18T06:20:38.945Z,71.84
2023-04-18T06:23:08.242Z,70.63
2023-04-18T06:25:39.096Z,69.11
2023-04-18T06:28:07.353Z,68.15
2023-04-18T06:30:35.936Z,68.17
2023-04-18T06:33:06.196Z,65.59
2023-04-18T06:35:34.451Z,64.61
2023-04-18T06:38:03.265Z,64.56
2023-04-18T06:40:31.612Z,64.37
2023-04-18T06:42:59.817Z,62.90
2023-04-18T06:45:31.260Z,62.92
2023-04-18T06:48:00.180Z,62.52
2023-04-18T06:50:31.030Z,63.86
2023-04-18T06:52:59.346Z,64.19
2023-04-18T06:55:27.673Z,63.30
2023-04-18T06:57:56.252Z,62.37
2023-04-18T07:00:24.524Z,60.70
2023-04-18T07:02:53.024Z,60.73
2023-04-18T07:05:21.468Z,60.02
2023-04-18T07:07:51.352Z,58.84
2023-04-18T07:10:20.205Z,59.33
2023-04-18T07:12:48.686Z,59.02
2023-04-18T07:15:17.113Z,57.29
2023-04-18T07:17:45.313Z,59.20
2023-04-18T07:20:14.448Z,59.33
2023-04-18T07:22:43.225Z,60.92
2023-04-18T07:25:13.195Z,62.85
2023-04-18T07:27:41.602Z,64.75
2023-04-18T07:30:10.902Z,66.22
2023-04-18T07:32:39.385Z,65.19
2023-04-18T07:35:08.142Z,65.60
2023-04-18T07:37:36.606Z,63.64
2023-04-18T07:40:05.878Z,61.59
2023-04-18T07:42:36.248Z,62.01
2023-04-18T07:45:04.864Z,62.43
2023-04-18T07:47:33.593Z,61.76
2023-04-18T07:50:02.467Z,61.39
2023-04-18T07:52:30.868Z,61.40
2023-04-18T07:54:59.450Z,59.97
2023-04-18T07:57:27.695Z,61.27
2023-04-18T07:59:57.396Z,62.97
2023-04-18T08:02:25.905Z,63.33
2023-04-18T08:04:56.461Z,63.56
2023-04-18T08:07:25.012Z,63.99
2023-04-18T08:09:53.432Z,64.88
2023-04-18T08:12:21.886Z,65.09
2023-04-18T08:14:50.444Z,66.17
2023-04-18T08:17:20.428Z,65.99
2023-04-18T08:19:48.728Z,66.15
2023-04-18T08:22:16.992Z,66.14
2023-04-18T08:25:00.952Z,67.20
2023-04-18T08:27:31.932Z,66.20
2023-04-18T08:30:00.672Z,66.65
2023-04-18T08:32:30.569Z,66.65
2023-04-18T08:34:58.982Z,68.13
2023-04-18T08:37:28.098Z,68.93
2023-04-18T08:39:56.673Z,69.26
2023-04-18T08:42:25.321Z,68.43
2023-04-18T08:44:54.112Z,68.65
2023-04-18T08:47:22.479Z,68.90
2023-04-18T08:49:53.693Z,68.14
2023-04-18T08:52:23.843Z,67.89
2023-04-18T08:54:52.618Z,67.84
2023-04-18T08:57:26.956Z,66.69
2023-04-18T08:59:55.754Z,63.29
2023-04-18T09:02:39.113Z,61.25
2023-04-18T09:05:14.801Z,62.50
2023-04-18T09:07:43.972Z,62.70
2023-04-18T09:10:13.924Z,62.90
2023-04-18T09:12:50.429Z,62.38
2023-04-18T09:15:22.647Z,59.35
2023-04-18T09:17:54.185Z,59.42
2023-04-18T09:20:34.690Z,57.60
2023-04-18T09:23:05.058Z,56.59
2023-04-18T09:25:36.148Z,56.64
2023-04-18T09:28:05.977Z,56.97
2023-04-18T09:30:38.152Z,55.72
2023-04-18T09:33:07.873Z,55.75
2023-04-18T09:35:38.470Z,57.89
2023-04-18T09:38:07.711Z,58.56
2023-04-18T09:40:36.161Z,56.94
2023-04-18T09:43:19.464Z,57.70
2023-04-18T09:45:48.837Z,57.91
2023-04-18T09:48:17.214Z,57.28
2023-04-18T09:50:49.616Z,57.65
2023-04-18T09:53:21.010Z,58.78
2023-04-18T09:55:53.297Z,58.57
2023-04-18T09:58:23.709Z,59.20
2023-04-18T10:00:54.515Z,58.58
2023-04-18T10:03:25.311Z,58.13
2023-04-18T10:05:57.964Z,57.30
2023-04-18T10:08:27.577Z,59.01
2023-04-18T10:10:58.747Z,58.40
2023-04-18T10:13:29.023Z,60.00
2023-04-18T10:15:57.921Z,60.61
2023-04-18T10:18:27.756Z,60.96
2023-04-18T10:21:04.422Z,60.37
2023-04-18T10:23:37.198Z,59.25
2023-04-18T10:26:06.230Z,58.62
2023-04-18T10:28:55.257Z,58.89
2023-04-18T10:31:24.396Z,58.66
2023-04-18T10:34:04.622Z,57.98
2023-04-18T10:36:36.049Z,56.35
2023-04-18T10:39:22.061Z,56.81
2023-04-18T10:41:51.595Z,57.79
2023-04-18T10:44:24.331Z,58.35
2023-04-18T10:47:32.425Z,56.35
2023-04-18T10:50:06.180Z,57.83
2023-04-18T10:52:38.762Z,58.52
2023-04-18T10:55:16.603Z,58.19
2023-04-18T10:57:46.714Z,58.82
2023-04-18T11:00:17.440Z,59.28
2023-04-18T11:02:57.933Z,58.43
2023-04-18T11:05:28.145Z,59.21
2023-04-18T11:07:57.761Z,58.83
2023-04-18T11:10:27.885Z,58.01
2023-04-18T11:12:57.498Z,56.96
2023-04-18T11:15:28.011Z,56.44
2023-04-18T11:18:00.017Z,57.69
2023-04-18T11:20:29.474Z,57.27
2023-04-18T11:23:00.781Z,56.41
2023-04-18T11:25:30.915Z,56.00
2023-04-18T11:28:00.973Z,56.93
2023-04-18T11:30:31.436Z,55.37
2023-04-18T11:32:59.826Z,56.69
2023-04-18T11:35:28.292Z,56.98
2023-04-18T11:37:58.035Z,57.08
2023-04-18T11:40:26.807Z,55.66
2023-04-18T11:42:56.510Z,56.00
2023-04-18T11:45:24.824Z,57.13
2023-04-18T11:47:58.346Z,57.57
2023-04-18T11:50:27.196Z,58.41
2023-04-18T11:52:56.545Z,56.54
2023-04-18T11:55:27.358Z,55.39
2023-04-18T11:57:57.022Z,56.44
2023-04-18T12:00:33.980Z,56.91
2023-04-18T12:03:04.607Z,55.07
2023-04-18T12:05:34.797Z,55.60
2023-04-18T12:08:12.009Z,56.34
2023-04-18T12:10:48.504Z,57.26
2023-04-18T12:13:16.845Z,56.07
2023-04-18T12:15:46.808Z,57.58
2023-04-18T12:18:19.822Z,55.57
2023-04-18T12:20:50.675Z,54.86
2023-04-18T12:23:33.006Z,56.76
2023-04-18T12:26:03.955Z,54.67
2023-04-18T12:28:32.948Z,55.69
2023-04-18T12:31:01.305Z,55.21
2023-04-18T12:33:29.710Z,54.44
2023-04-18T12:35:57.984Z,55.83
2023-04-18T12:38:27.225Z,56.06
2023-04-18T12:40:55.562Z,57.39
2023-04-18T12:43:25.813Z,57.96
2023-04-18T12:45:54.434Z,56.94
2023-04-18T12:48:22.689Z,57.83
2023-04-18T12:50:51.010Z,55.59
2023-04-18T12:53:19.152Z,56.09
2023-04-18T12:55:47.803Z,56.58
2023-04-18T12:58:18.838Z,56.63
2023-04-18T13:00:49.212Z,55.40
2023-04-18T13:03:17.694Z,54.73
2023-04-18T13:05:47.090Z,54.31
2023-04-18T13:08:17.607Z,54.05
2023-04-18T13:10:47.763Z,54.44
2023-04-18T13:13:16.280Z,56.67
2023-04-18T13:15:44.531Z,56.05
2023-04-18T13:18:14.187Z,57.50
2023-04-18T13:20:42.353Z,56.37
2023-04-18T13:23:11.637Z,56.97
2023-04-18T13:25:40.305Z,56.48
2023-04-18T13:28:08.529Z,56.76
2023-04-18T13:30:36.868Z,56.07
2023-04-18T13:33:05.473Z,56.85
2023-04-18T13:35:35.263Z,56.38
2023-04-18T13:38:04.079Z,56.06
2023-04-18T13:40:33.547Z,55.19
2023-04-18T13:43:02.166Z,55.09
2023-04-18T13:45:30.517Z,56.64
2023-04-18T13:47:58.887Z,56.45
2023-04-18T13:50:28.233Z,55.60
2023-04-18T13:52:57.855Z,55.62
2023-04-18T13:55:26.373Z,55.81
2023-04-18T13:57:55.022Z,56.92
2023-04-18T14:00:23.521Z,56.64
2023-04-18T14:02:52.027Z,55.28
2023-04-18T14:05:20.554Z,56.39
2023-04-18T14:07:49.928Z,54.93
2023-04-18T14:10:20.205Z,55.19
2023-04-18T14:12:48.480Z,56.20
2023-04-18T14:15:16.944Z,56.70
2023-04-18T14:17:46.035Z,57.11
2023-04-18T14:20:15.757Z,57.57
2023-04-18T14:22:44.059Z,55.13
2023-04-18T14:25:12.536Z,55.70
2023-04-18T14:27:42.566Z,56.70
2023-04-18T14:30:12.121Z,57.70
2023-04-18T14:32:40.646Z,57.30
2023-04-18T14:35:11.276Z,56.25
2023-04-18T14:37:39.855Z,57.41
2023-04-18T14:40:10.102Z,57.13
2023-04-18T14:42:38.966Z,56.58
2023-04-18T14:45:11.409Z,57.92
2023-04-18T14:47:40.289Z,57.29
2023-04-18T14:50:11.905Z,57.36
2023-04-18T14:52:40.448Z,56.82
2023-04-18T14:55:09.938Z,57.37
2023-04-18T14:57:39.327Z,57.52
2023-04-18T15:00:12.651Z,57.09
2023-04-18T15:02:43.340Z,56.12
2023-04-18T15:05:13.455Z,55.69
2023-04-18T15:07:43.583Z,55.25
2023-04-18T15:10:13.185Z,55.66
2023-04-18T15:12:41.831Z,56.42
2023-04-18T15:15:12.517Z,55.45
2023-04-18T15:17:41.093Z,55.93
2023-04-18T15:20:10.780Z,57.17
2023-04-18T15:22:39.079Z,56.96
2023-04-18T15:25:08.352Z,57.15
2023-04-18T15:27:37.032Z,56.48
2023-04-18T15:30:08.760Z,57.37
2023-04-18T15:32:40.384Z,58.55
2023-04-18T15:35:09.637Z,59.75
2023-04-18T15:37:38.118Z,59.80
2023-04-18T15:40:09.771Z,58.77
2023-04-18T15:42:38.252Z,59.95
2023-04-18T15:45:08.539Z,59.81
2023-04-18T15:47:38.847Z,60.16
2023-04-18T15:50:09.351Z,60.57
2023-04-18T15:52:37.760Z,59.79
2023-04-18T15:55:07.183Z,61.25
2023-04-18T15:57:36.548Z,60.07
2023-04-18T16:00:10.470Z,60.00
2023-04-18T16:02:40.223Z,60.12
2023-04-18T16:05:09.534Z,60.41
2023-04-18T16:07:37.664Z,59.56
2023-04-18T16:10:08.666Z,60.00
2023-04-18T16:12:37.243Z,60.61
2023-04-18T16:15:07.075Z,60.47
2023-04-18T16:17:35.772Z,60.53
2023-04-18T16:20:08.566Z,60.20
2023-04-18T16:22:36.994Z,60.12
2023-04-18T16:25:05.583Z,59.61
2023-04-18T16:27:33.855Z,59.57
2023-04-18T16:30:02.187Z,59.67
2023-04-18T16:32:30.746Z,59.61
2023-04-18T16:34:59.265Z,59.01
2023-04-18T16:37:29.122Z,60.33
2023-04-18T16:39:57.446Z,60.31
2023-04-18T16:42:25.902Z,60.17
2023-04-18T16:44:54.239Z,59.84
2023-04-18T16:47:22.551Z,60.26
2023-04-18T16:49:51.731Z,60.71
2023-04-18T16:52:20.044Z,61.31
2023-04-18T16:54:51.962Z,60.98
2023-04-18T16:57:21.057Z,60.67
2023-04-18T16:59:49.337Z,61.88
2023-04-18T17:02:17.904Z,62.13
2023-04-18T17:04:46.349Z,62.18
2023-04-18T17:07:14.573Z,62.73
2023-04-18T17:09:44.428Z,62.96
2023-04-18T17:12:14.693Z,62.91
2023-04-18T17:14:43.061Z,63.19
2023-04-18T17:17:11.491Z,63.93
2023-04-18T17:19:40.423Z,63.08
2023-04-18T17:22:08.799Z,64.06
2023-04-18T17:24:37.195Z,64.30
2023-04-18T17:27:05.571Z,63.32
2023-04-18T17:29:35.372Z,62.68
2023-04-18T17:32:03.799Z,63.59
2023-04-18T17:34:32.557Z,64.29
2023-04-18T17:37:01.054Z,64.55
2023-04-18T17:39:29.357Z,64.16
2023-04-18T17:41:57.704Z,64.33
2023-04-18T17:44:26.099Z,63.70
2023-04-18T17:46:56.002Z,64.27
2023-04-18T17:49:24.617Z,64.49
2023-04-18T17:51:52.843Z,64.89
2023-04-18T17:54:22.135Z,64.55
2023-04-18T17:56:50.563Z,64.80
2023-04-18T17:59:18.894Z,65.01
2023-04-18T18:01:47.455Z,65.68
2023-04-18T18:04:17.506Z,65.87
2023-04-18T18:06:55.054Z,65.86
2023-04-18T18:09:23.641Z,65.90
2023-04-18T18:12:33.187Z,66.25
2023-04-18T18:15:15.161Z,65.91
2023-04-18T18:18:21.688Z,66.24
2023-04-18T18:20:47.920Z,66.48
2023-04-18T18:23:20.047Z,67.04
2023-04-18T18:26:06.738Z,67.27
2023-04-18T18:28:44.850Z,66.90
2023-04-18T18:31:58.614Z,67.45
2023-04-18T18:34:40.175Z,68.23
2023-04-18T18:37:51.956Z,68.32
2023-04-18T18:40:42.779Z,68.89
2023-04-18T18:46:09.429Z,69.18
2023-04-18T18:48:59.159Z,69.94
2023-04-18T18:52:13.324Z,70.26
2023-04-18T18:54:43.022Z,70.72
2023-04-18T18:57:11.456Z,71.20
2023-04-18T18:59:39.681Z,71.41
2023-04-18T19:02:08.472Z,71.54
2023-04-18T19:04:37.222Z,71.69
2023-04-18T19:07:06.176Z,71.94
2023-04-18T19:09:34.497Z,72.43
2023-04-18T19:12:04.527Z,72.64
2023-04-18T19:14:33.020Z,73.03
2023-04-18T19:17:01.481Z,72.86
2023-04-18T19:19:29.775Z,72.92
2023-04-18T19:21:58.124Z,72.88
2023-04-18T19:24:26.553Z,73.35
2023-04-18T19:26:54.767Z,73.42
2023-04-18T19:29:25.276Z,73.82
2023-04-18T19:31:53.888Z,73.80
2023-04-18T19:34:22.324Z,74.27
2023-04-18T19:36:51.035Z,73.99
2023-04-18T19:39:22.305Z,74.65
2023-04-18T19:41:50.670Z,74.54
2023-04-18T19:44:18.962Z,74.73
2023-04-18T19:46:50.109Z,74.63
2023-04-18T19:49:18.537Z,75.03
2023-04-18T19:51:46.774Z,75.06
2023-04-18T19:54:15.056Z,75.28
2023-04-18T19:56:46.040Z,75.45
2023-04-18T19:59:14.980Z,75.13
2023-04-18T20:01:43.490Z,75.55
2023-04-18T20:04:17.652Z,76.17
2023-04-18T20:06:46.221Z,76.08
2023-04-18T20:09:16.994Z,76.33
2023-04-18T20:11:46.640Z,76.86
2023-04-18T20:14:15.043Z,76.81
2023-04-18T20:16:46.784Z,76.67
2023-04-18T20:19:19.636Z,76.92
2023-04-18T20:21:48.065Z,77.07
2023-04-18T20:24:16.364Z,77.20
2023-04-18T20:26:46.739Z,77.22
2023-04-18T20:29:15.360Z,77.35
2023-04-18T20:31:43.855Z,77.22
2023-04-18T20:34:12.315Z,77.54
2023-04-18T20:36:43.549Z,77.45
2023-04-18T20:39:13.489Z,77.27
2023-04-18T20:41:46.569Z,77.29
2023-04-18T20:44:17.480Z,76.82
2023-04-18T20:46:46.057Z,76.99
2023-04-18T20:49:14.667Z,76.57
2023-04-18T20:51:44.659Z,76.59
2023-04-18T20:54:13.592Z,76.37
2023-04-18T20:56:42.139Z,76.65
2023-04-18T20:59:12.856Z,76.56
2023-04-18T21:01:41.293Z,76.63
2023-04-18T21:04:09.926Z,76.60
2023-04-18T21:06:38.394Z,76.81
2023-04-18T21:09:17.360Z,76.61
2023-04-18T21:11:45.893Z,76.60
2023-04-18T21:14:14.320Z,76.81
2023-04-18T21:16:42.903Z,76.67
2023-04-18T21:19:12.287Z,76.66
2023-04-18T21:21:40.685Z,76.88
2023-04-18T21:24:11.183Z,76.35
2023-04-18T21:26:39.587Z,76.46
2023-04-18T21:29:07.957Z,76.66
2023-04-18T21:31:36.751Z,76.50
2023-04-18T21:34:06.469Z,76.89
2023-04-18T21:36:35.052Z,76.63
2023-04-18T21:39:04.123Z,76.75
2023-04-18T21:41:33.933Z,77.16
2023-04-18T21:44:02.380Z,76.97
2023-04-18T21:46:30.598Z,76.93
2023-04-18T21:48:58.924Z,76.95
2023-04-18T21:51:27.327Z,76.85
2023-04-18T21:53:55.660Z,76.88
2023-04-18T21:56:23.948Z,76.90
2023-04-18T21:58:53.670Z,77.19
2023-04-18T22:01:22.137Z,76.90
2023-04-18T22:03:50.801Z,77.06
2023-04-18T22:06:20.831Z,76.96
2023-04-18T22:08:50.028Z,77.08
2023-04-18T22:11:18.842Z,77.28
2023-04-18T22:13:47.524Z,77.05
2023-04-18T22:16:18.054Z,76.98
2023-04-18T22:18:46.416Z,77.10
2023-04-18T22:21:14.787Z,77.09
2023-04-18T22:23:43.063Z,77.26
2023-04-18T22:26:11.295Z,77.40
2023-04-18T22:28:39.761Z,77.41
2023-04-18T22:31:08.488Z,77.52
2023-04-18T22:33:38.249Z,77.38
2023-04-18T22:36:07.270Z,77.63
2023-04-18T22:38:35.677Z,78.15
2023-04-18T22:41:03.933Z,78.09
2023-04-18T22:43:32.489Z,78.19
2023-04-18T22:46:00.823Z,78.21
2023-04-18T22:48:30.137Z,78.55
2023-04-18T22:51:01.985Z,78.34
2023-04-18T22:53:30.583Z,78.47
2023-04-18T22:55:58.760Z,78.46
2023-04-18T22:58:27.138Z,78.48
2023-04-18T23:00:55.977Z,78.69
2023-04-18T23:03:24.552Z,78.50
2023-04-18T23:05:53.023Z,78.47
2023-04-18T23:08:22.925Z,78.39
2023-04-18T23:10:51.231Z,78.61
2023-04-18T23:13:19.523Z,78.43
2023-04-18T23:15:48.069Z,78.46
2023-04-18T23:18:16.731Z,78.18
2023-04-18T23:20:44.942Z,78.17
2023-04-18T23:23:13.269Z,78.54
2023-04-18T23:25:42.900Z,78.58
2023-04-18T23:28:11.133Z,78.34
2023-04-18T23:30:39.364Z,78.61
2023-04-18T23:33:08.594Z,78.71
2023-04-18T23:35:36.818Z,78.72
2023-04-18T23:38:05.596Z,78.83
2023-04-18T23:40:33.940Z,79.21
2023-04-18T23:43:03.981Z,79.29
2023-04-18T23:45:32.348Z,79.39
2023-04-18T23:48:01.244Z,79.36
2023-04-18T23:50:29.649Z,79.53
2023-04-18T23:52:58.023Z,79.11
2023-04-18T23:55:26.422Z,79.30
2023-04-18T23:57:54.778Z,79.66
